createdAt,value
2023-04-17T00:00:36.070Z,0.00
2023-04-17T00:01:36.054Z,0.00
2023-04-17T00:02:36.193Z,0.00
2023-04-17T00:03:36.209Z,0.00
2023-04-17T00:04:36.166Z,0.00
2023-04-17T00:05:36.011Z,0.00
2023-04-17T00:06:36.026Z,0.00
2023-04-17T00:07:36.023Z,0.00
2023-04-17T00:08:35.977Z,0.00
2023-04-17T00:09:35.976Z,0.00
2023-04-17T00:10:36.043Z,0.00
2023-04-17T00:11:35.946Z,0.00
2023-04-17T00:12:35.966Z,0.00
2023-04-17T00:13:35.920Z,0.00
2023-04-17T00:14:35.927Z,0.00
2023-04-17T00:15:35.886Z,0.00
2023-04-17T00:16:35.907Z,0.00
2023-04-17T00:17:35.925Z,0.00
2023-04-17T00:18:35.865Z,0.00
2023-04-17T00:19:35.843Z,0.00
2023-04-17T00:20:35.831Z,0.00
2023-04-17T00:21:35.829Z,0.00
2023-04-17T00:22:35.853Z,0.00
2023-04-17T00:23:35.813Z,0.00
2023-04-17T00:24:35.778Z,0.00
2023-04-17T00:25:35.773Z,0.00
2023-04-17T00:26:35.772Z,0.00
2023-04-17T00:27:35.804Z,0.00
2023-04-17T00:28:35.728Z,0.00
2023-04-17T00:29:35.743Z,0.00
2023-04-17T00:30:35.706Z,0.00
2023-04-17T00:31:35.743Z,0.00
2023-04-17T00:32:35.763Z,0.00
2023-04-17T00:33:35.675Z,0.00
2023-04-17T00:34:35.682Z,0.00
2023-04-17T00:35:35.662Z,0.00
2023-04-17T00:36:35.657Z,0.00
2023-04-17T00:37:35.673Z,0.00
2023-04-17T00:38:35.624Z,0.00
2023-04-17T00:39:35.612Z,0.00
2023-04-17T00:40:35.594Z,0.00
2023-04-17T00:41:35.642Z,0.00
2023-04-17T00:42:35.613Z,0.00
2023-04-17T00:43:35.580Z,0.00
2023-04-17T00:44:35.555Z,0.00
2023-04-17T00:45:35.657Z,0.00
2023-04-17T00:46:35.531Z,0.00
2023-04-17T00:47:35.606Z,0.00
2023-04-17T00:48:35.574Z,0.00
2023-04-17T00:49:35.509Z,0.00
2023-04-17T00:50:35.520Z,0.00
2023-04-17T00:51:35.462Z,0.00
2023-04-17T00:52:35.515Z,0.00
2023-04-17T00:53:35.460Z,0.00
2023-04-17T00:54:35.457Z,0.00
2023-04-17T00:55:35.440Z,0.00
2023-04-17T00:56:35.399Z,0.00
2023-04-17T00:57:35.456Z,0.00
2023-04-17T00:58:35.410Z,0.00
2023-04-17T00:59:35.371Z,0.00
2023-04-17T01:00:35.375Z,0.00
2023-04-17T01:01:35.411Z,0.00
2023-04-17T01:02:35.515Z,0.00
2023-04-17T01:03:35.600Z,0.00
2023-04-17T01:04:35.336Z,0.00
2023-04-17T01:05:35.320Z,0.00
2023-04-17T01:06:35.303Z,0.00
2023-04-17T01:07:35.326Z,0.00
2023-04-17T01:08:35.270Z,0.00
2023-04-17T01:09:35.279Z,0.00
2023-04-17T01:10:35.243Z,0.00
2023-04-17T01:11:35.242Z,0.00
2023-04-17T01:12:35.317Z,0.00
2023-04-17T01:13:35.228Z,0.00
2023-04-17T01:14:35.208Z,0.00
2023-04-17T01:15:35.199Z,0.00
2023-04-17T01:16:35.205Z,0.00
2023-04-17T01:17:35.224Z,0.00
2023-04-17T01:18:35.191Z,0.00
2023-04-17T01:19:35.160Z,0.00
2023-04-17T01:20:35.146Z,0.00
2023-04-17T01:21:35.117Z,0.00
2023-04-17T01:22:35.166Z,0.00
2023-04-17T01:23:35.103Z,0.00
2023-04-17T01:24:35.090Z,0.00
2023-04-17T01:25:35.082Z,0.00
2023-04-17T01:26:35.079Z,0.00
2023-04-17T01:27:35.110Z,0.00
2023-04-17T01:28:35.057Z,0.00
2023-04-17T01:29:35.034Z,0.00
2023-04-17T01:30:35.036Z,0.00
2023-04-17T01:31:35.007Z,0.00
2023-04-17T01:32:35.062Z,0.00
2023-04-17T01:33:35.027Z,0.00
2023-04-17T01:34:37.206Z,0.00
2023-04-17T01:35:34.974Z,0.00
2023-04-17T01:36:34.978Z,0.00
2023-04-17T01:37:34.945Z,0.00
2023-04-17T01:38:34.997Z,0.00
2023-04-17T01:39:34.942Z,0.00
2023-04-17T01:40:34.910Z,0.00
2023-04-17T01:41:34.896Z,0.00
2023-04-17T01:42:34.894Z,0.00
2023-04-17T01:43:34.912Z,0.00
2023-04-17T01:44:34.851Z,0.00
2023-04-17T01:45:34.861Z,0.00
2023-04-17T01:46:34.851Z,0.00
2023-04-17T01:47:34.858Z,0.00
2023-04-17T01:48:34.876Z,0.00
2023-04-17T01:49:34.803Z,0.00
2023-04-17T01:50:34.803Z,0.00
2023-04-17T01:51:34.787Z,0.00
2023-04-17T01:52:34.776Z,0.00
2023-04-17T01:53:34.810Z,0.00
2023-04-17T01:54:34.754Z,0.00
2023-04-17T01:55:34.737Z,0.00
2023-04-17T01:56:34.751Z,0.00
2023-04-17T01:57:34.792Z,0.00
2023-04-17T01:58:34.750Z,0.00
2023-04-17T01:59:34.701Z,0.00
2023-04-17T02:00:34.697Z,0.00
2023-04-17T02:01:34.755Z,0.00
2023-04-17T02:02:34.736Z,0.00
2023-04-17T02:03:34.893Z,0.00
2023-04-17T02:04:34.701Z,0.00
2023-04-17T02:05:34.633Z,0.00
2023-04-17T02:06:34.615Z,0.00
2023-04-17T02:07:34.593Z,0.00
2023-04-17T02:08:34.660Z,0.00
2023-04-17T02:09:34.604Z,0.00
2023-04-17T02:10:34.577Z,0.00
2023-04-17T02:11:34.562Z,0.00
2023-04-17T02:12:34.546Z,0.00
2023-04-17T02:13:34.582Z,0.00
2023-04-17T02:14:34.531Z,0.00
2023-04-17T02:15:34.545Z,0.00
2023-04-17T02:16:34.623Z,0.00
2023-04-17T02:17:34.553Z,0.00
2023-04-17T02:18:34.497Z,0.00
2023-04-17T02:19:34.471Z,0.00
2023-04-17T02:20:34.484Z,0.00
2023-04-17T02:21:34.459Z,0.00
2023-04-17T02:22:34.427Z,0.00
2023-04-17T02:23:34.460Z,0.00
2023-04-17T02:24:34.409Z,0.00
2023-04-17T02:25:34.421Z,0.00
2023-04-17T02:26:34.462Z,0.00
2023-04-17T02:27:34.388Z,0.00
2023-04-17T02:28:34.407Z,0.00
2023-04-17T02:29:34.359Z,0.00
2023-04-17T02:30:34.354Z,0.00
2023-04-17T02:31:34.366Z,0.00
2023-04-17T02:32:34.368Z,0.00
2023-04-17T02:33:34.341Z,0.00
2023-04-17T02:34:34.289Z,0.00
2023-04-17T02:35:34.274Z,0.00
2023-04-17T02:36:34.274Z,0.00
2023-04-17T02:37:34.259Z,0.00
2023-04-17T02:38:34.285Z,0.00
2023-04-17T02:39:34.253Z,0.00
2023-04-17T02:40:34.224Z,0.00
2023-04-17T02:41:34.201Z,0.00
2023-04-17T02:42:34.215Z,0.00
2023-04-17T02:43:34.222Z,0.00
2023-04-17T02:44:34.187Z,0.00
2023-04-17T02:45:34.177Z,0.00
2023-04-17T02:46:34.179Z,0.00
2023-04-17T02:47:34.178Z,0.00
2023-04-17T02:48:34.181Z,0.00
2023-04-17T02:49:34.137Z,0.00
2023-04-17T02:50:34.125Z,0.00
2023-04-17T02:51:34.115Z,0.00
2023-04-17T02:52:34.081Z,0.00
2023-04-17T02:53:34.139Z,0.00
2023-04-17T02:54:34.076Z,0.00
2023-04-17T02:55:34.056Z,0.00
2023-04-17T02:56:34.045Z,0.00
2023-04-17T02:57:34.050Z,0.00
2023-04-17T02:58:34.074Z,0.00
2023-04-17T02:59:34.010Z,0.00
2023-04-17T03:00:34.017Z,0.00
2023-04-17T03:01:34.134Z,0.00
2023-04-17T03:02:34.140Z,0.00
2023-04-17T03:03:34.161Z,0.00
2023-04-17T03:04:33.937Z,0.00
2023-04-17T03:05:33.955Z,0.00
2023-04-17T03:06:33.941Z,0.00
2023-04-17T03:07:33.939Z,0.00
2023-04-17T03:08:33.936Z,0.00
2023-04-17T03:09:33.909Z,0.00
2023-04-17T03:10:33.876Z,0.00
2023-04-17T03:11:33.876Z,0.00
2023-04-17T03:12:33.861Z,0.00
2023-04-17T03:13:33.841Z,0.00
2023-04-17T03:14:33.888Z,0.00
2023-04-17T03:15:33.832Z,0.00
2023-04-17T03:16:33.856Z,0.00
2023-04-17T03:17:33.808Z,0.00
2023-04-17T03:18:33.791Z,0.00
2023-04-17T03:19:33.816Z,0.00
2023-04-17T03:20:33.779Z,0.00
2023-04-17T03:21:33.760Z,0.00
2023-04-17T03:22:33.755Z,0.00
2023-04-17T03:23:33.765Z,0.00
2023-04-17T03:24:33.763Z,0.00
2023-04-17T03:25:33.778Z,0.00
2023-04-17T03:26:33.702Z,0.00
2023-04-17T03:27:33.702Z,0.00
2023-04-17T03:28:33.674Z,0.00
2023-04-17T03:29:33.709Z,0.00
2023-04-17T03:30:33.670Z,0.00
2023-04-17T03:31:33.656Z,0.00
2023-04-17T03:32:33.658Z,0.00
2023-04-17T03:33:33.610Z,0.00
2023-04-17T03:34:33.637Z,0.00
2023-04-17T03:35:33.597Z,0.00
2023-04-17T03:36:33.580Z,0.00
2023-04-17T03:37:33.601Z,0.00
2023-04-17T03:38:33.564Z,0.00
2023-04-17T03:39:33.585Z,0.00
2023-04-17T03:40:33.837Z,0.00
2023-04-17T03:41:33.547Z,0.00
2023-04-17T03:42:33.518Z,0.00
2023-04-17T03:43:33.518Z,0.00
2023-04-17T03:44:33.606Z,0.00
2023-04-17T03:45:33.524Z,0.00
2023-04-17T03:46:33.464Z,0.00
2023-04-17T03:47:33.523Z,0.00
2023-04-17T03:48:33.454Z,0.00
2023-04-17T03:49:33.474Z,0.00
2023-04-17T03:50:33.439Z,0.00
2023-04-17T03:51:33.420Z,0.00
2023-04-17T03:52:33.426Z,0.00
2023-04-17T03:53:33.403Z,0.00
2023-04-17T03:54:33.422Z,0.00
2023-04-17T03:55:33.395Z,0.00
2023-04-17T03:56:33.378Z,0.00
2023-04-17T03:57:33.323Z,0.00
2023-04-17T03:58:33.318Z,0.00
2023-04-17T03:59:33.359Z,0.00
2023-04-17T04:00:33.311Z,5.62
2023-04-17T04:01:33.289Z,5.62
2023-04-17T04:02:33.351Z,5.62
2023-04-17T04:03:33.510Z,5.62
2023-04-17T04:04:33.544Z,11.25
2023-04-17T04:05:33.268Z,11.25
2023-04-17T04:06:33.228Z,11.25
2023-04-17T04:07:33.234Z,11.25
2023-04-17T04:08:33.198Z,11.25
2023-04-17T04:09:33.226Z,16.88
2023-04-17T04:10:33.184Z,16.88
2023-04-17T04:11:33.195Z,16.88
2023-04-17T04:12:33.166Z,16.88
2023-04-17T04:13:33.150Z,16.88
2023-04-17T04:14:33.181Z,16.88
2023-04-17T04:15:33.138Z,16.88
2023-04-17T04:16:33.191Z,16.88
2023-04-17T04:17:33.165Z,16.88
2023-04-17T04:18:33.103Z,16.88
2023-04-17T04:19:33.122Z,16.88
2023-04-17T04:20:33.077Z,22.50
2023-04-17T04:21:33.044Z,22.50
2023-04-17T04:22:33.038Z,22.50
2023-04-17T04:23:33.035Z,22.50
2023-04-17T04:24:33.041Z,28.12
2023-04-17T04:25:33.028Z,28.12
2023-04-17T04:26:33.008Z,28.12
2023-04-17T04:27:33.062Z,28.12
2023-04-17T04:28:32.981Z,28.12
2023-04-17T04:29:33.017Z,33.75
2023-04-17T04:30:32.950Z,39.38
2023-04-17T04:31:33.007Z,33.75
2023-04-17T04:32:33.076Z,39.38
2023-04-17T04:33:32.929Z,39.38
2023-04-17T04:34:32.945Z,45.00
2023-04-17T04:35:32.926Z,45.00
2023-04-17T04:36:32.873Z,45.00
2023-04-17T04:37:32.880Z,50.62
2023-04-17T04:38:33.265Z,61.88
2023-04-17T04:39:32.892Z,67.50
2023-04-17T04:40:32.852Z,67.50
2023-04-17T04:41:32.822Z,67.50
2023-04-17T04:42:32.955Z,67.50
2023-04-17T04:43:32.807Z,73.12
2023-04-17T04:44:32.809Z,73.12
2023-04-17T04:45:32.804Z,67.50
2023-04-17T04:46:32.819Z,78.75
2023-04-17T04:47:32.791Z,78.75
2023-04-17T04:48:32.754Z,84.38
2023-04-17T04:49:32.730Z,84.38
2023-04-17T04:50:32.793Z,90.00
2023-04-17T04:51:32.711Z,95.62
2023-04-17T04:52:32.706Z,101.25
2023-04-17T04:53:32.690Z,101.25
2023-04-17T04:54:32.700Z,106.88
2023-04-17T04:55:32.697Z,112.50
2023-04-17T04:56:33.092Z,112.50
2023-04-17T04:57:32.640Z,112.50
2023-04-17T04:58:32.624Z,118.12
2023-04-17T04:59:32.630Z,118.12
2023-04-17T05:00:32.660Z,118.12
2023-04-17T05:01:32.700Z,118.12
2023-04-17T05:02:32.682Z,123.75
2023-04-17T05:03:32.756Z,123.75
2023-04-17T05:04:32.685Z,129.38
2023-04-17T05:05:32.569Z,129.38
2023-04-17T05:06:32.568Z,135.00
2023-04-17T05:07:32.544Z,135.00
2023-04-17T05:08:32.540Z,129.38
2023-04-17T05:09:32.505Z,140.62
2023-04-17T05:10:32.668Z,140.62
2023-04-17T05:11:32.477Z,146.25
2023-04-17T05:12:32.470Z,146.25
2023-04-17T05:13:32.472Z,140.62
2023-04-17T05:14:32.442Z,146.25
2023-04-17T05:15:32.483Z,140.62
2023-04-17T05:16:32.469Z,140.62
2023-04-17T05:17:32.448Z,140.62
2023-04-17T05:18:32.411Z,151.88
2023-04-17T05:19:32.373Z,180.00
2023-04-17T05:20:32.415Z,185.62
2023-04-17T05:21:32.400Z,191.25
2023-04-17T05:22:32.357Z,196.88
2023-04-17T05:23:32.368Z,208.12
2023-04-17T05:24:32.323Z,230.62
2023-04-17T05:25:32.371Z,225.00
2023-04-17T05:26:32.310Z,185.62
2023-04-17T05:27:32.308Z,174.38
2023-04-17T05:28:32.294Z,168.75
2023-04-17T05:29:32.292Z,151.88
2023-04-17T05:30:32.291Z,157.50
2023-04-17T05:31:32.297Z,180.00
2023-04-17T05:32:32.276Z,196.88
2023-04-17T05:33:32.225Z,213.75
2023-04-17T05:34:32.205Z,208.12
2023-04-17T05:35:32.260Z,191.25
2023-04-17T05:36:32.185Z,174.38
2023-04-17T05:37:32.196Z,180.00
2023-04-17T05:38:32.171Z,202.50
2023-04-17T05:39:32.158Z,196.88
2023-04-17T05:40:32.184Z,185.62
2023-04-17T05:41:32.144Z,196.88
2023-04-17T05:42:32.134Z,253.12
2023-04-17T05:43:32.143Z,292.50
2023-04-17T05:44:32.103Z,320.62
2023-04-17T05:45:32.154Z,326.25
2023-04-17T05:46:32.087Z,343.12
2023-04-17T05:47:32.099Z,360.00
2023-04-17T05:48:32.048Z,360.00
2023-04-17T05:49:32.052Z,376.88
2023-04-17T05:50:32.084Z,365.62
2023-04-17T05:51:32.007Z,382.50
2023-04-17T05:52:32.016Z,405.00
2023-04-17T05:53:32.022Z,416.25
2023-04-17T05:54:31.999Z,433.12
2023-04-17T05:55:32.019Z,450.00
2023-04-17T05:56:31.965Z,466.88
2023-04-17T05:57:31.958Z,472.50
2023-04-17T05:58:31.944Z,483.75
2023-04-17T05:59:32.047Z,489.38
2023-04-17T06:00:31.903Z,500.62
2023-04-17T06:01:31.954Z,511.88
2023-04-17T06:02:31.980Z,517.50
2023-04-17T06:03:32.091Z,528.75
2023-04-17T06:04:32.101Z,534.38
2023-04-17T06:05:32.014Z,540.00
2023-04-17T06:06:31.906Z,551.25
2023-04-17T06:07:31.845Z,562.50
2023-04-17T06:08:31.849Z,568.12
2023-04-17T06:09:31.830Z,568.12
2023-04-17T06:10:31.826Z,562.50
2023-04-17T06:11:31.860Z,568.12
2023-04-17T06:12:31.814Z,568.12
2023-04-17T06:13:31.785Z,551.25
2023-04-17T06:14:31.770Z,545.62
2023-04-17T06:15:31.744Z,545.62
2023-04-17T06:16:31.830Z,483.75
2023-04-17T06:17:31.806Z,500.62
2023-04-17T06:18:31.725Z,500.62
2023-04-17T06:19:31.704Z,534.38
2023-04-17T06:20:31.692Z,568.12
2023-04-17T06:21:31.732Z,607.50
2023-04-17T06:22:31.694Z,624.38
2023-04-17T06:23:31.690Z,646.88
2023-04-17T06:24:31.637Z,658.12
2023-04-17T06:25:31.625Z,675.00
2023-04-17T06:26:31.686Z,680.62
2023-04-17T06:27:31.602Z,686.25
2023-04-17T06:28:31.614Z,691.88
2023-04-17T06:29:31.608Z,691.88
2023-04-17T06:30:31.579Z,697.50
2023-04-17T06:31:31.761Z,697.50
2023-04-17T06:32:31.604Z,703.12
2023-04-17T06:33:31.545Z,697.50
2023-04-17T06:34:31.534Z,703.12
2023-04-17T06:35:31.522Z,708.75
2023-04-17T06:36:31.542Z,708.75
2023-04-17T06:37:31.496Z,714.38
2023-04-17T06:38:31.495Z,714.38
2023-04-17T06:39:31.463Z,703.12
2023-04-17T06:40:31.472Z,720.00
2023-04-17T06:41:31.481Z,736.88
2023-04-17T06:42:31.429Z,753.75
2023-04-17T06:43:31.410Z,759.38
2023-04-17T06:44:31.413Z,765.00
2023-04-17T06:45:31.390Z,770.62
2023-04-17T06:46:31.496Z,776.25
2023-04-17T06:47:31.409Z,776.25
2023-04-17T06:48:31.372Z,776.25
2023-04-17T06:49:31.352Z,781.88
2023-04-17T06:50:31.382Z,787.50
2023-04-17T06:51:31.354Z,804.38
2023-04-17T06:52:31.336Z,798.75
2023-04-17T06:53:31.300Z,770.62
2023-04-17T06:54:31.346Z,793.12
2023-04-17T06:55:31.279Z,826.88
2023-04-17T06:56:31.328Z,821.25
2023-04-17T06:57:31.253Z,798.75
2023-04-17T06:58:31.262Z,753.75
2023-04-17T06:59:31.246Z,776.25
2023-04-17T07:00:31.243Z,753.75
2023-04-17T07:01:31.220Z,646.88
2023-04-17T07:02:31.482Z,556.88
2023-04-17T07:03:31.350Z,534.38
2023-04-17T07:04:31.220Z,568.12
2023-04-17T07:05:31.180Z,669.38
2023-04-17T07:06:31.171Z,753.75
2023-04-17T07:07:31.191Z,793.12
2023-04-17T07:08:31.136Z,849.38
2023-04-17T07:09:31.136Z,928.12
2023-04-17T07:10:31.118Z,956.25
2023-04-17T07:11:31.103Z,978.75
2023-04-17T07:12:31.135Z,978.75
2023-04-17T07:13:31.077Z,995.62
2023-04-17T07:14:31.071Z,1018.12
2023-04-17T07:15:31.063Z,1040.62
2023-04-17T07:16:31.105Z,1046.25
2023-04-17T07:17:31.091Z,1046.25
2023-04-17T07:18:31.034Z,1040.62
2023-04-17T07:19:31.006Z,1029.38
2023-04-17T07:20:30.994Z,1023.75
2023-04-17T07:21:30.988Z,1012.50
2023-04-17T07:22:31.035Z,1012.50
2023-04-17T07:23:31.021Z,990.00
2023-04-17T07:24:30.956Z,990.00
2023-04-17T07:25:30.973Z,995.62
2023-04-17T07:26:30.952Z,1006.88
2023-04-17T07:27:30.966Z,995.62
2023-04-17T07:28:30.899Z,984.38
2023-04-17T07:29:30.898Z,945.00
2023-04-17T07:30:30.876Z,922.50
2023-04-17T07:31:30.909Z,860.62
2023-04-17T07:32:30.929Z,843.75
2023-04-17T07:33:30.848Z,826.88
2023-04-17T07:34:30.857Z,725.62
2023-04-17T07:35:30.811Z,624.38
2023-04-17T07:36:30.796Z,551.25
2023-04-17T07:37:30.839Z,568.12
2023-04-17T07:38:30.786Z,556.88
2023-04-17T07:39:30.811Z,495.00
2023-04-17T07:40:30.766Z,433.12
2023-04-17T07:41:30.755Z,455.62
2023-04-17T07:42:30.830Z,466.88
2023-04-17T07:43:30.719Z,444.38
2023-04-17T07:44:30.731Z,416.25
2023-04-17T07:45:31.529Z,489.38
2023-04-17T07:46:30.774Z,495.00
2023-04-17T07:47:30.773Z,511.88
2023-04-17T07:48:30.659Z,523.12
2023-04-17T07:49:30.677Z,556.88
2023-04-17T07:50:30.638Z,573.75
2023-04-17T07:51:30.631Z,624.38
2023-04-17T07:52:30.670Z,736.88
2023-04-17T07:53:30.601Z,787.50
2023-04-17T07:54:30.603Z,781.88
2023-04-17T07:55:30.574Z,759.38
2023-04-17T07:56:30.565Z,708.75
2023-04-17T07:57:30.624Z,725.62
2023-04-17T07:58:30.557Z,708.75
2023-04-17T07:59:30.562Z,618.75
2023-04-17T08:00:30.548Z,562.50
2023-04-17T08:01:30.506Z,517.50
2023-04-17T08:02:30.621Z,466.88
2023-04-17T08:03:30.670Z,472.50
2023-04-17T08:04:30.600Z,455.62
2023-04-17T08:05:30.538Z,478.12
2023-04-17T08:06:30.467Z,528.75
2023-04-17T08:07:30.488Z,596.25
2023-04-17T08:08:30.441Z,663.75
2023-04-17T08:09:30.437Z,714.38
2023-04-17T08:10:30.423Z,742.50
2023-04-17T08:11:30.421Z,736.88
2023-04-17T08:12:30.461Z,748.12
2023-04-17T08:13:30.413Z,770.62
2023-04-17T08:14:30.362Z,810.00
2023-04-17T08:15:30.348Z,866.25
2023-04-17T08:16:30.414Z,939.38
2023-04-17T08:17:30.388Z,922.50
2023-04-17T08:18:30.337Z,984.38
2023-04-17T08:19:30.309Z,1096.88
2023-04-17T08:20:30.309Z,1170.00
2023-04-17T08:21:30.293Z,1130.62
2023-04-17T08:22:30.333Z,1186.88
2023-04-17T08:23:30.253Z,1181.25
2023-04-17T08:24:30.240Z,995.62
2023-04-17T08:25:30.264Z,911.25
2023-04-17T08:26:30.264Z,871.88
2023-04-17T08:27:30.284Z,866.25
2023-04-17T08:28:30.231Z,888.75
2023-04-17T08:29:30.211Z,894.38
2023-04-17T08:30:30.255Z,911.25
2023-04-17T08:31:30.226Z,939.38
2023-04-17T08:32:30.224Z,928.12
2023-04-17T08:33:30.155Z,978.75
2023-04-17T08:34:30.175Z,922.50
2023-04-17T08:35:30.139Z,703.12
2023-04-17T08:36:30.125Z,596.25
2023-04-17T08:37:30.139Z,613.12
2023-04-17T08:38:30.092Z,652.50
2023-04-17T08:39:30.090Z,551.25
2023-04-17T08:40:30.093Z,461.25
2023-04-17T08:41:30.069Z,483.75
2023-04-17T08:42:30.090Z,551.25
2023-04-17T08:43:30.052Z,652.50
2023-04-17T08:44:30.038Z,787.50
2023-04-17T08:45:30.005Z,843.75
2023-04-17T08:46:30.031Z,810.00
2023-04-17T08:47:30.058Z,821.25
2023-04-17T08:48:29.998Z,832.50
2023-04-17T08:49:29.969Z,804.38
2023-04-17T08:50:29.962Z,770.62
2023-04-17T08:51:29.940Z,748.12
2023-04-17T08:52:29.975Z,753.75
2023-04-17T08:53:29.916Z,748.12
2023-04-17T08:54:29.902Z,731.25
2023-04-17T08:55:29.925Z,736.88
2023-04-17T08:56:29.879Z,742.50
2023-04-17T08:57:29.907Z,725.62
2023-04-17T08:58:29.900Z,691.88
2023-04-17T08:59:29.859Z,669.38
2023-04-17T09:00:29.881Z,669.38
2023-04-17T09:01:29.917Z,680.62
2023-04-17T09:02:29.969Z,691.88
2023-04-17T09:03:29.880Z,680.62
2023-04-17T09:04:29.850Z,680.62
2023-04-17T09:05:29.765Z,697.50
2023-04-17T09:06:29.771Z,675.00
2023-04-17T09:07:29.774Z,613.12
2023-04-17T09:08:29.797Z,562.50
2023-04-17T09:09:29.732Z,551.25
2023-04-17T09:10:29.712Z,545.62
2023-04-17T09:11:29.737Z,545.62
2023-04-17T09:12:29.715Z,523.12
2023-04-17T09:13:29.736Z,444.38
2023-04-17T09:14:29.688Z,360.00
2023-04-17T09:15:29.670Z,354.38
2023-04-17T09:16:29.714Z,393.75
2023-04-17T09:17:29.667Z,388.12
2023-04-17T09:18:29.655Z,382.50
2023-04-17T09:19:29.634Z,399.38
2023-04-17T09:20:29.601Z,421.88
2023-04-17T09:21:29.599Z,455.62
2023-04-17T09:22:29.595Z,483.75
2023-04-17T09:23:29.666Z,495.00
2023-04-17T09:24:29.570Z,455.62
2023-04-17T09:25:29.570Z,416.25
2023-04-17T09:26:29.604Z,416.25
2023-04-17T09:27:29.562Z,410.62
2023-04-17T09:28:29.580Z,410.62
2023-04-17T09:29:29.538Z,416.25
2023-04-17T09:30:29.492Z,410.62
2023-04-17T09:31:29.500Z,405.00
2023-04-17T09:32:29.467Z,433.12
2023-04-17T09:33:29.512Z,461.25
2023-04-17T09:34:29.471Z,461.25
2023-04-17T09:35:29.467Z,450.00
2023-04-17T09:36:29.480Z,438.75
2023-04-17T09:37:29.428Z,427.50
2023-04-17T09:38:29.443Z,444.38
2023-04-17T09:39:29.404Z,489.38
2023-04-17T09:40:29.366Z,523.12
2023-04-17T09:41:29.392Z,540.00
2023-04-17T09:42:29.362Z,562.50
2023-04-17T09:43:29.395Z,556.88
2023-04-17T09:44:29.343Z,579.38
2023-04-17T09:45:29.327Z,601.88
2023-04-17T09:46:29.340Z,568.12
2023-04-17T09:47:29.325Z,517.50
2023-04-17T09:48:29.334Z,478.12
2023-04-17T09:49:29.300Z,455.62
2023-04-17T09:50:29.290Z,450.00
2023-04-17T09:51:29.269Z,444.38
2023-04-17T09:52:29.237Z,444.38
2023-04-17T09:53:29.274Z,433.12
2023-04-17T09:54:29.226Z,438.75
2023-04-17T09:55:29.247Z,444.38
2023-04-17T09:56:29.220Z,444.38
2023-04-17T09:57:29.247Z,427.50
2023-04-17T09:58:29.204Z,405.00
2023-04-17T09:59:29.144Z,416.25
2023-04-17T10:00:29.182Z,427.50
2023-04-17T10:01:29.171Z,410.62
2023-04-17T10:02:29.279Z,405.00
2023-04-17T10:03:29.329Z,399.38
2023-04-17T10:04:29.174Z,416.25
2023-04-17T10:05:29.282Z,433.12
2023-04-17T10:06:29.059Z,421.88
2023-04-17T10:07:29.080Z,405.00
2023-04-17T10:08:29.105Z,399.38
2023-04-17T10:09:29.068Z,388.12
2023-04-17T10:10:29.024Z,382.50
2023-04-17T10:11:29.028Z,382.50
2023-04-17T10:12:29.025Z,405.00
2023-04-17T10:13:29.053Z,405.00
2023-04-17T10:14:29.061Z,393.75
2023-04-17T10:15:28.980Z,376.88
2023-04-17T10:16:28.991Z,365.62
2023-04-17T10:17:29.135Z,382.50
2023-04-17T10:18:28.997Z,405.00
2023-04-17T10:19:28.954Z,427.50
2023-04-17T10:20:28.921Z,410.62
2023-04-17T10:21:28.924Z,354.38
2023-04-17T10:22:28.919Z,326.25
2023-04-17T10:23:28.928Z,326.25
2023-04-17T10:24:28.859Z,337.50
2023-04-17T10:25:28.888Z,343.12
2023-04-17T10:26:28.853Z,348.75
2023-04-17T10:27:28.850Z,354.38
2023-04-17T10:28:28.814Z,343.12
2023-04-17T10:29:28.837Z,343.12
2023-04-17T10:30:28.797Z,360.00
2023-04-17T10:31:28.844Z,371.25
2023-04-17T10:32:29.096Z,365.62
2023-04-17T10:33:28.780Z,365.62
2023-04-17T10:34:28.801Z,360.00
2023-04-17T10:35:28.761Z,348.75
2023-04-17T10:36:28.727Z,354.38
2023-04-17T10:37:28.718Z,371.25
2023-04-17T10:38:28.721Z,382.50
2023-04-17T10:39:28.758Z,376.88
2023-04-17T10:40:28.699Z,365.62
2023-04-17T10:41:28.684Z,360.00
2023-04-17T10:42:28.694Z,348.75
2023-04-17T10:43:28.686Z,331.88
2023-04-17T10:44:28.699Z,320.62
2023-04-17T10:45:28.666Z,303.75
2023-04-17T10:46:28.734Z,303.75
2023-04-17T10:47:28.659Z,303.75
2023-04-17T10:48:28.628Z,292.50
2023-04-17T10:49:28.623Z,270.00
2023-04-17T10:50:28.575Z,275.62
2023-04-17T10:51:28.577Z,281.25
2023-04-17T10:52:28.562Z,275.62
2023-04-17T10:53:28.568Z,281.25
2023-04-17T10:54:28.561Z,275.62
2023-04-17T10:55:28.496Z,264.38
2023-04-17T10:56:28.500Z,258.75
2023-04-17T10:57:28.494Z,258.75
2023-04-17T10:58:31.553Z,253.12
2023-04-17T10:59:28.537Z,253.12
2023-04-17T11:00:28.449Z,253.12
2023-04-17T11:01:28.977Z,253.12
2023-04-17T11:02:28.507Z,258.75
2023-04-17T11:03:28.498Z,264.38
2023-04-17T11:04:28.538Z,270.00
2023-04-17T11:05:28.406Z,275.62
2023-04-17T11:06:28.398Z,286.88
2023-04-17T11:07:28.362Z,292.50
2023-04-17T11:08:28.365Z,298.12
2023-04-17T11:09:28.396Z,298.12
2023-04-17T11:10:28.362Z,298.12
2023-04-17T11:11:40.503Z,303.75
2023-04-17T11:12:29.323Z,315.00
2023-04-17T11:13:28.310Z,320.62
2023-04-17T11:14:28.348Z,331.88
2023-04-17T11:15:28.313Z,331.88
2023-04-17T11:16:28.388Z,331.88
2023-04-17T11:17:28.315Z,337.50
2023-04-17T11:18:28.276Z,331.88
2023-04-17T11:19:28.300Z,326.25
2023-04-17T11:20:28.270Z,326.25
2023-04-17T11:21:29.059Z,326.25
2023-04-17T11:22:28.233Z,337.50
2023-04-17T11:23:28.189Z,354.38
2023-04-17T11:24:28.458Z,360.00
2023-04-17T11:25:28.164Z,371.25
2023-04-17T11:26:28.179Z,376.88
2023-04-17T11:27:28.167Z,382.50
2023-04-17T11:28:28.220Z,388.12
2023-04-17T11:29:28.194Z,399.38
2023-04-17T11:30:28.132Z,405.00
2023-04-17T11:31:28.111Z,410.62
2023-04-17T11:32:28.139Z,410.62
2023-04-17T11:33:28.074Z,399.38
2023-04-17T11:34:28.165Z,376.88
2023-04-17T11:35:28.074Z,360.00
2023-04-17T11:36:28.058Z,348.75
2023-04-17T11:37:28.037Z,337.50
2023-04-17T11:38:28.072Z,354.38
2023-04-17T11:39:28.062Z,354.38
2023-04-17T11:40:28.017Z,326.25
2023-04-17T11:41:27.993Z,320.62
2023-04-17T11:42:27.999Z,360.00
2023-04-17T11:43:28.005Z,360.00
2023-04-17T11:44:28.025Z,354.38
2023-04-17T11:45:27.970Z,337.50
2023-04-17T11:46:27.990Z,320.62
2023-04-17T11:47:27.964Z,320.62
2023-04-17T11:48:27.916Z,320.62
2023-04-17T11:49:27.953Z,320.62
2023-04-17T11:50:27.933Z,360.00
2023-04-17T11:51:27.892Z,376.88
2023-04-17T11:52:27.862Z,399.38
2023-04-17T11:53:27.851Z,444.38
2023-04-17T11:54:28.033Z,416.25
2023-04-17T11:55:27.846Z,326.25
2023-04-17T11:56:27.935Z,326.25
2023-04-17T11:57:27.815Z,382.50
2023-04-17T11:58:29.525Z,399.38
2023-04-17T11:59:27.833Z,405.00
2023-04-17T12:00:27.763Z,427.50
2023-04-17T12:01:27.762Z,444.38
2023-04-17T12:02:27.866Z,455.62
2023-04-17T12:03:27.976Z,438.75
2023-04-17T12:04:27.959Z,427.50
2023-04-17T12:05:27.868Z,444.38
2023-04-17T12:06:27.709Z,427.50
2023-04-17T12:07:27.690Z,382.50
2023-04-17T12:08:27.663Z,354.38
2023-04-17T12:09:27.709Z,343.12
2023-04-17T12:10:27.662Z,360.00
2023-04-17T12:11:27.657Z,371.25
2023-04-17T12:12:27.635Z,354.38
2023-04-17T12:13:27.666Z,315.00
2023-04-17T12:14:27.681Z,315.00
2023-04-17T12:15:27.609Z,315.00
2023-04-17T12:16:27.654Z,326.25
2023-04-17T12:17:27.629Z,331.88
2023-04-17T12:18:27.558Z,360.00
2023-04-17T12:19:27.612Z,382.50
2023-04-17T12:20:27.545Z,365.62
2023-04-17T12:21:27.524Z,326.25
2023-04-17T12:22:27.511Z,315.00
2023-04-17T12:23:27.509Z,326.25
2023-04-17T12:24:27.605Z,343.12
2023-04-17T12:25:27.524Z,360.00
2023-04-17T12:26:27.482Z,365.62
2023-04-17T12:27:27.472Z,354.38
2023-04-17T12:28:27.475Z,337.50
2023-04-17T12:29:42.324Z,309.38
2023-04-17T12:30:28.475Z,292.50
2023-04-17T12:31:27.430Z,303.75
2023-04-17T12:32:27.477Z,331.88
2023-04-17T12:33:27.414Z,348.75
2023-04-17T12:34:28.040Z,382.50
2023-04-17T12:35:27.429Z,421.88
2023-04-17T12:36:27.417Z,438.75
2023-04-17T12:37:27.386Z,433.12
2023-04-17T12:38:27.338Z,444.38
2023-04-17T12:39:27.350Z,483.75
2023-04-17T12:40:27.366Z,523.12
2023-04-17T12:41:27.319Z,534.38
2023-04-17T12:42:29.538Z,556.88
2023-04-17T12:43:27.283Z,568.12
2023-04-17T12:44:27.284Z,556.88